Terminal Aerodrome Forecast
Issued by NWS Billings, MT

Home | Current Version | Previous Version | Text Only | Print | Product List | Glossary On
Versions: 1 2 3 4 5 6 7 8 9 10 11 12 13 14 15 16 17 18 19 20 21 22 23 24 25 26 27 28 29 30
314
FTUS45 KBYZ 231739
TAFSHR
TAF
KSHR 231739Z 2318/2418 VRB05KT P6SM SKC
     FM232300 VRB05KT P6SM VCTS FEW100CB SCT250
     FM240600 VRB05KT P6SM SCT250
     FM241500 32009KT P6SM SCT250=

USA.gov is the U.S. government's official web portal to all federal, state and local government web resources and services.